GLO1782 SBBR-SBEG
Flight info
| Callsign | GLO1782 |
|---|---|
| Flight time | 2h 31m |
| Altitude | 36000 |
| Route | UGUGA UM409 NEMEL DCT IRUMO |
| Aircraft | B738/M-SDE2E3FGHIRWXY/LB1 |
Departure
| Time | 2026-05-08 01:13 |
|---|---|
| Airport | Presidente Juscelino Kubitschek International Airport (SBBR) |
Arrival
| Time | 2026-05-08 03:44 |
|---|---|
| Airport | Eduardo Gomes International Airport (SBEG) |
| Time | Latitude | Longitude | Altitude | Speed | Heading |
|---|---|---|---|---|---|
| 2026-05-08 00:38 | -15.86700 | -47.91797 | 3465 ft | 0 kts | 180° |
| 2026-05-08 00:41 | -15.86694 | -47.91797 | 3465 ft | 2 kts | 180° |
| 2026-05-08 00:42 | -15.86676 | -47.91797 | 3464 ft | 3 kts | 180° |
| 2026-05-08 00:42 | -15.86656 | -47.91797 | 3465 ft | 3 kts | 180° |
| 2026-05-08 00:42 | -15.86636 | -47.91797 | 3466 ft | 3 kts | 198° |
| 2026-05-08 00:42 | -15.86620 | -47.91784 | 3466 ft | 3 kts | 242° |
| 2026-05-08 00:43 | -15.86616 | -47.91773 | 3465 ft | 0 kts | 271° |
| 2026-05-08 01:01 | -15.86616 | -47.91775 | 3466 ft | 0 kts | 272° |
| 2026-05-08 01:01 | -15.86616 | -47.91778 | 3466 ft | 1 kts | 272° |
| 2026-05-08 01:01 | -15.86615 | -47.91784 | 3368 ft | 1 kts | 272° |
| 2026-05-08 01:01 | -15.86615 | -47.91792 | 3368 ft | 0 kts | 272° |
| 2026-05-08 01:03 | -15.86615 | -47.91795 | 3368 ft | 0 kts | 272° |
| 2026-05-08 01:04 | -15.86614 | -47.91796 | 3441 ft | 1 kts | 277° |
| 2026-05-08 01:04 | -15.86614 | -47.91809 | 3497 ft | 2 kts | 271° |
| 2026-05-08 01:04 | -15.86614 | -47.91824 | 3466 ft | 2 kts | 271° |
| 2026-05-08 01:05 | -15.86614 | -47.91838 | 3465 ft | 2 kts | 262° |
| 2026-05-08 01:05 | -15.86616 | -47.91854 | 3465 ft | 2 kts | 262° |
| 2026-05-08 01:05 | -15.86618 | -47.91869 | 3465 ft | 2 kts | 263° |
| 2026-05-08 01:05 | -15.86619 | -47.91883 | 3465 ft | 2 kts | 270° |
| 2026-05-08 01:06 | -15.86619 | -47.91897 | 3465 ft | 2 kts | 269° |
| 2026-05-08 01:06 | -15.86619 | -47.91911 | 3465 ft | 2 kts | 267° |
| 2026-05-08 01:06 | -15.86620 | -47.91924 | 3465 ft | 2 kts | 267° |
| 2026-05-08 01:06 | -15.86622 | -47.91949 | 3465 ft | 6 kts | 264° |
| 2026-05-08 01:07 | -15.86625 | -47.91993 | 3462 ft | 6 kts | 266° |
| 2026-05-08 01:07 | -15.86627 | -47.92037 | 3464 ft | 6 kts | 266° |
| 2026-05-08 01:07 | -15.86630 | -47.92088 | 3463 ft | 9 kts | 266° |
| 2026-05-08 01:07 | -15.86630 | -47.92176 | 3462 ft | 13 kts | 285° |
| 2026-05-08 01:08 | -15.86592 | -47.92260 | 3461 ft | 13 kts | 295° |
| 2026-05-08 01:08 | -15.86545 | -47.92336 | 3460 ft | 12 kts | 304° |
| 2026-05-08 01:08 | -15.86531 | -47.92422 | 3460 ft | 12 kts | 266° |
| 2026-05-08 01:08 | -15.86534 | -47.92479 | 3460 ft | 12 kts | 266° |
| 2026-05-08 01:09 | -15.86539 | -47.92564 | 3459 ft | 12 kts | 266° |
| 2026-05-08 01:09 | -15.86545 | -47.92646 | 3458 ft | 11 kts | 266° |
| 2026-05-08 01:09 | -15.86549 | -47.92726 | 3459 ft | 11 kts | 274° |
| 2026-05-08 01:09 | -15.86496 | -47.92767 | 3456 ft | 0 kts | 355° |
| 2026-05-08 01:11 | -15.86493 | -47.92767 | 3457 ft | 3 kts | 356° |
| 2026-05-08 01:11 | -15.86444 | -47.92770 | 3456 ft | 8 kts | 358° |
| 2026-05-08 01:11 | -15.86393 | -47.92746 | 3458 ft | 8 kts | 42° |
| 2026-05-08 01:12 | -15.86363 | -47.92698 | 3459 ft | 8 kts | 68° |
| 2026-05-08 01:12 | -15.86351 | -47.92644 | 3458 ft | 8 kts | 84° |
| 2026-05-08 01:12 | -15.86336 | -47.92476 | 3461 ft | 56 kts | 87° |
| 2026-05-08 01:12 | -15.86297 | -47.91798 | 3467 ft | 130 kts | 85° |
| 2026-05-08 01:13 | -15.86221 | -47.90650 | 3559 ft | 183 kts | 86° |
| 2026-05-08 01:13 | -15.86135 | -47.89325 | 4551 ft | 181 kts | 85° |
| 2026-05-08 01:13 | -15.86030 | -47.88003 | 5476 ft | 186 kts | 83° |
| 2026-05-08 01:13 | -15.85924 | -47.86617 | 6022 ft | 204 kts | 85° |
| 2026-05-08 01:14 | -15.85836 | -47.85059 | 6217 ft | 227 kts | 85° |
| 2026-05-08 01:14 | -15.85737 | -47.83349 | 6475 ft | 245 kts | 85° |
| 2026-05-08 01:14 | -15.85627 | -47.81550 | 6944 ft | 251 kts | 84° |
| 2026-05-08 01:14 | -15.85515 | -47.79756 | 7475 ft | 254 kts | 84° |
| 2026-05-08 01:15 | -15.85189 | -47.77959 | 7966 ft | 255 kts | 64° |
| 2026-05-08 01:15 | -15.84175 | -47.76446 | 8402 ft | 262 kts | 43° |
| 2026-05-08 01:15 | -15.82621 | -47.75375 | 8767 ft | 275 kts | 21° |
| 2026-05-08 01:15 | -15.80736 | -47.75016 | 9550 ft | 278 kts | 359° |
| 2026-05-08 01:16 | -15.78867 | -47.75484 | 9960 ft | 276 kts | 336° |
| 2026-05-08 01:16 | -15.77128 | -47.76360 | 10106 ft | 282 kts | 336° |
| 2026-05-08 01:16 | -15.75342 | -47.77237 | 10121 ft | 284 kts | 336° |
| 2026-05-08 01:16 | -15.73564 | -47.78105 | 10112 ft | 282 kts | 336° |
| 2026-05-08 01:17 | -15.71791 | -47.78968 | 10114 ft | 281 kts | 336° |
| 2026-05-08 01:17 | -15.70023 | -47.79836 | 10122 ft | 281 kts | 333° |
| 2026-05-08 01:17 | -15.68522 | -47.81133 | 10101 ft | 285 kts | 307° |
| 2026-05-08 01:17 | -15.67713 | -47.83031 | 10185 ft | 298 kts | 284° |
| 2026-05-08 01:18 | -15.67546 | -47.85277 | 10375 ft | 325 kts | 273° |
| 2026-05-08 01:18 | -15.67549 | -47.87696 | 10715 ft | 342 kts | 272° |
| 2026-05-08 01:18 | -15.67571 | -47.90192 | 11294 ft | 351 kts | 271° |
| 2026-05-08 01:18 | -15.67589 | -47.92803 | 11430 ft | 372 kts | 271° |
| 2026-05-08 01:19 | -15.67600 | -47.95556 | 11573 ft | 391 kts | 271° |
| 2026-05-08 01:19 | -15.67600 | -47.98428 | 11784 ft | 404 kts | 272° |
| 2026-05-08 01:19 | -15.67597 | -48.01370 | 12225 ft | 409 kts | 271° |
| 2026-05-08 01:19 | -15.67595 | -48.04331 | 12772 ft | 411 kts | 271° |
| 2026-05-08 01:20 | -15.67589 | -48.07304 | 13299 ft | 413 kts | 271° |
| 2026-05-08 01:20 | -15.67581 | -48.10297 | 13789 ft | 416 kts | 271° |
| 2026-05-08 01:20 | -15.67571 | -48.13275 | 14182 ft | 420 kts | 271° |
| 2026-05-08 01:20 | -15.67560 | -48.16318 | 14554 ft | 423 kts | 271° |
| 2026-05-08 01:21 | -15.67550 | -48.19376 | 14929 ft | 426 kts | 271° |
| 2026-05-08 01:21 | -15.67541 | -48.22465 | 15294 ft | 429 kts | 271° |
| 2026-05-08 01:21 | -15.67532 | -48.25577 | 15660 ft | 432 kts | 271° |
| 2026-05-08 01:21 | -15.67524 | -48.28704 | 16024 ft | 435 kts | 270° |
| 2026-05-08 01:22 | -15.67515 | -48.31852 | 16375 ft | 438 kts | 270° |
| 2026-05-08 01:22 | -15.67505 | -48.35026 | 16727 ft | 441 kts | 270° |
| 2026-05-08 01:22 | -15.67208 | -48.38193 | 17013 ft | 444 kts | 285° |
| 2026-05-08 01:22 | -15.65893 | -48.41088 | 17363 ft | 445 kts | 305° |
| 2026-05-08 01:23 | -15.64222 | -48.43117 | 17651 ft | 446 kts | 319° |
| 2026-05-08 01:23 | -15.61712 | -48.45005 | 17954 ft | 448 kts | 328° |
| 2026-05-08 01:23 | -15.59085 | -48.46777 | 18210 ft | 452 kts | 327° |
| 2026-05-08 01:23 | -15.56447 | -48.48580 | 18442 ft | 455 kts | 327° |
| 2026-05-08 01:24 | -15.53800 | -48.50403 | 18706 ft | 457 kts | 327° |
| 2026-05-08 01:24 | -15.51149 | -48.52242 | 18977 ft | 459 kts | 327° |
| 2026-05-08 01:24 | -15.48498 | -48.54090 | 19238 ft | 461 kts | 326° |
| 2026-05-08 01:24 | -15.45829 | -48.55955 | 19500 ft | 462 kts | 326° |
| 2026-05-08 01:25 | -15.43194 | -48.57799 | 19738 ft | 464 kts | 326° |
| 2026-05-08 01:25 | -15.40512 | -48.59676 | 19980 ft | 466 kts | 326° |
| 2026-05-08 01:25 | -15.37780 | -48.61588 | 20207 ft | 469 kts | 326° |
| 2026-05-08 01:25 | -15.35109 | -48.63456 | 20442 ft | 470 kts | 326° |
| 2026-05-08 01:26 | -15.32391 | -48.65356 | 20677 ft | 472 kts | 326° |
| 2026-05-08 01:26 | -15.29662 | -48.67262 | 20898 ft | 474 kts | 326° |
| 2026-05-08 01:26 | -15.26922 | -48.69176 | 21112 ft | 476 kts | 326° |
| 2026-05-08 01:26 | -15.24175 | -48.71094 | 21323 ft | 478 kts | 326° |
| 2026-05-08 01:27 | -15.21416 | -48.73019 | 21541 ft | 479 kts | 326° |
| 2026-05-08 01:27 | -15.18645 | -48.74952 | 21737 ft | 481 kts | 326° |
| 2026-05-08 01:27 | -15.15864 | -48.76891 | 21935 ft | 483 kts | 326° |
| 2026-05-08 01:27 | -15.13077 | -48.78834 | 22137 ft | 484 kts | 326° |
| 2026-05-08 01:28 | -15.10279 | -48.80785 | 22314 ft | 486 kts | 326° |
| 2026-05-08 01:28 | -15.07470 | -48.82742 | 22496 ft | 487 kts | 326° |
| 2026-05-08 01:28 | -15.04653 | -48.84704 | 22672 ft | 489 kts | 326° |
| 2026-05-08 01:28 | -15.01824 | -48.86674 | 22842 ft | 491 kts | 326° |
| 2026-05-08 01:29 | -14.98987 | -48.88649 | 23014 ft | 492 kts | 326° |
| 2026-05-08 01:29 | -14.96143 | -48.90628 | 23192 ft | 493 kts | 326° |
| 2026-05-08 01:29 | -14.93288 | -48.92614 | 23365 ft | 494 kts | 326° |
| 2026-05-08 01:29 | -14.90432 | -48.94599 | 23526 ft | 496 kts | 326° |
| 2026-05-08 01:30 | -14.87565 | -48.96593 | 23647 ft | 497 kts | 326° |
| 2026-05-08 01:30 | -14.84692 | -48.98589 | 23796 ft | 498 kts | 326° |
| 2026-05-08 01:30 | -14.81815 | -49.00588 | 23942 ft | 499 kts | 326° |
| 2026-05-08 01:30 | -14.78934 | -49.02589 | 24089 ft | 499 kts | 326° |
| 2026-05-08 01:31 | -14.76050 | -49.04592 | 24228 ft | 500 kts | 326° |
| 2026-05-08 01:31 | -14.73162 | -49.06596 | 24354 ft | 501 kts | 326° |
| 2026-05-08 01:31 | -14.70262 | -49.08608 | 24477 ft | 502 kts | 326° |
| 2026-05-08 01:31 | -14.67403 | -49.10591 | 24604 ft | 502 kts | 326° |
| 2026-05-08 01:32 | -14.64464 | -49.12629 | 24742 ft | 503 kts | 326° |
| 2026-05-08 01:32 | -14.61593 | -49.14619 | 24868 ft | 503 kts | 326° |
| 2026-05-08 01:32 | -14.58684 | -49.16635 | 24980 ft | 504 kts | 326° |
| 2026-05-08 01:32 | -14.55767 | -49.18655 | 25099 ft | 505 kts | 326° |
| 2026-05-08 01:33 | -14.52840 | -49.20682 | 25212 ft | 506 kts | 326° |
| 2026-05-08 01:33 | -14.49915 | -49.22707 | 25332 ft | 506 kts | 326° |
| 2026-05-08 01:33 | -14.46988 | -49.24732 | 25448 ft | 507 kts | 326° |
| 2026-05-08 01:33 | -14.44054 | -49.26762 | 25545 ft | 507 kts | 326° |
| 2026-05-08 01:34 | -14.41121 | -49.28791 | 25644 ft | 508 kts | 326° |
| 2026-05-08 01:34 | -14.38183 | -49.30822 | 25722 ft | 509 kts | 326° |
| 2026-05-08 01:34 | -14.35240 | -49.32856 | 25806 ft | 509 kts | 326° |
| 2026-05-08 01:34 | -14.32299 | -49.34888 | 25869 ft | 509 kts | 326° |
| 2026-05-08 01:35 | -14.29350 | -49.36925 | 25932 ft | 510 kts | 326° |
| 2026-05-08 01:35 | -14.26401 | -49.38961 | 25984 ft | 510 kts | 326° |
| 2026-05-08 01:35 | -14.23451 | -49.40998 | 26035 ft | 511 kts | 326° |
| 2026-05-08 01:35 | -14.20502 | -49.43033 | 26107 ft | 510 kts | 326° |
| 2026-05-08 01:36 | -14.17549 | -49.45070 | 26199 ft | 510 kts | 326° |
| 2026-05-08 01:36 | -14.14602 | -49.47102 | 26302 ft | 509 kts | 326° |
| 2026-05-08 01:36 | -14.11663 | -49.49129 | 26407 ft | 509 kts | 326° |
| 2026-05-08 01:36 | -14.08726 | -49.51154 | 26488 ft | 508 kts | 326° |
| 2026-05-08 01:37 | -14.05782 | -49.53182 | 26579 ft | 508 kts | 326° |
| 2026-05-08 01:37 | -14.02850 | -49.55208 | 26677 ft | 508 kts | 324° |
| 2026-05-08 01:37 | -14.00033 | -49.57399 | 26776 ft | 507 kts | 320° |
| 2026-05-08 01:37 | -13.97384 | -49.59730 | 26880 ft | 507 kts | 317° |
| 2026-05-08 01:38 | -13.94765 | -49.62162 | 26994 ft | 506 kts | 317° |
| 2026-05-08 01:38 | -13.92164 | -49.64602 | 27112 ft | 506 kts | 317° |
| 2026-05-08 01:38 | -13.89555 | -49.67026 | 27244 ft | 505 kts | 317° |
| 2026-05-08 01:38 | -13.86931 | -49.69427 | 27374 ft | 505 kts | 317° |
| 2026-05-08 01:39 | -13.84295 | -49.71807 | 27505 ft | 504 kts | 318° |
| 2026-05-08 01:39 | -13.82762 | -49.73180 | 27579 ft | 504 kts | 318° |
| 2026-05-08 01:39 | -13.80113 | -49.75542 | 27716 ft | 504 kts | 318° |
| 2026-05-08 01:39 | -13.77468 | -49.77893 | 27862 ft | 503 kts | 318° |
| 2026-05-08 01:40 | -13.74818 | -49.80248 | 28006 ft | 502 kts | 318° |
| 2026-05-08 01:40 | -13.72171 | -49.82600 | 28154 ft | 502 kts | 318° |
| 2026-05-08 01:40 | -13.69532 | -49.84948 | 28300 ft | 502 kts | 318° |
| 2026-05-08 01:40 | -13.66896 | -49.87293 | 28457 ft | 501 kts | 318° |
| 2026-05-08 01:41 | -13.64256 | -49.89643 | 28627 ft | 500 kts | 318° |
| 2026-05-08 01:41 | -13.61627 | -49.91982 | 28796 ft | 500 kts | 318° |
| 2026-05-08 01:41 | -13.58998 | -49.94320 | 28967 ft | 499 kts | 318° |
| 2026-05-08 01:41 | -13.56408 | -49.96623 | 29138 ft | 499 kts | 317° |
| 2026-05-08 01:42 | -13.53787 | -49.98952 | 29323 ft | 498 kts | 317° |
| 2026-05-08 01:42 | -13.51166 | -50.01282 | 29507 ft | 497 kts | 317° |
| 2026-05-08 01:42 | -13.48551 | -50.03605 | 29704 ft | 496 kts | 317° |
| 2026-05-08 01:42 | -13.45939 | -50.05924 | 29904 ft | 496 kts | 317° |
| 2026-05-08 01:43 | -13.43330 | -50.08240 | 30090 ft | 495 kts | 317° |
| 2026-05-08 01:43 | -13.40728 | -50.10549 | 30263 ft | 494 kts | 317° |
| 2026-05-08 01:43 | -13.38125 | -50.12859 | 30435 ft | 494 kts | 317° |
| 2026-05-08 01:43 | -13.35531 | -50.15160 | 30610 ft | 493 kts | 317° |
| 2026-05-08 01:44 | -13.32933 | -50.17464 | 30785 ft | 493 kts | 317° |
| 2026-05-08 01:44 | -13.30343 | -50.19760 | 30977 ft | 492 kts | 317° |
| 2026-05-08 01:44 | -13.27755 | -50.22053 | 31170 ft | 491 kts | 317° |
| 2026-05-08 01:44 | -13.25172 | -50.24343 | 31357 ft | 490 kts | 317° |
| 2026-05-08 01:45 | -13.22592 | -50.26629 | 31556 ft | 490 kts | 317° |
| 2026-05-08 01:45 | -13.20006 | -50.28919 | 31765 ft | 489 kts | 317° |
| 2026-05-08 01:45 | -13.17434 | -50.31195 | 31986 ft | 488 kts | 317° |
| 2026-05-08 01:45 | -13.14864 | -50.33468 | 32196 ft | 487 kts | 317° |
| 2026-05-08 01:46 | -13.12301 | -50.35737 | 32406 ft | 487 kts | 317° |
| 2026-05-08 01:46 | -13.09734 | -50.38007 | 32625 ft | 486 kts | 317° |
| 2026-05-08 01:46 | -13.07216 | -50.40235 | 32845 ft | 485 kts | 317° |
| 2026-05-08 01:46 | -13.04660 | -50.42496 | 33073 ft | 484 kts | 317° |
| 2026-05-08 01:47 | -13.02112 | -50.44749 | 33292 ft | 483 kts | 316° |
| 2026-05-08 01:47 | -12.99568 | -50.46998 | 33520 ft | 482 kts | 316° |
| 2026-05-08 01:47 | -12.97025 | -50.49246 | 33763 ft | 481 kts | 316° |
| 2026-05-08 01:48 | -12.91960 | -50.53721 | 34183 ft | 480 kts | 316° |
| 2026-05-08 01:48 | -12.89437 | -50.55949 | 34386 ft | 479 kts | 316° |
| 2026-05-08 01:48 | -12.86915 | -50.58175 | 34594 ft | 478 kts | 316° |
| 2026-05-08 01:48 | -12.84402 | -50.60393 | 34793 ft | 477 kts | 316° |
| 2026-05-08 01:49 | -12.81888 | -50.62611 | 34984 ft | 476 kts | 316° |
| 2026-05-08 01:49 | -12.79378 | -50.64826 | 35181 ft | 475 kts | 316° |
| 2026-05-08 01:49 | -12.76877 | -50.67031 | 35380 ft | 474 kts | 316° |
| 2026-05-08 01:49 | -12.74382 | -50.69230 | 35581 ft | 473 kts | 316° |
| 2026-05-08 01:50 | -12.71886 | -50.71431 | 35766 ft | 472 kts | 316° |
| 2026-05-08 01:50 | -12.69398 | -50.73623 | 35917 ft | 472 kts | 316° |
| 2026-05-08 01:50 | -12.64429 | -50.78001 | 35930 ft | 474 kts | 316° |
| 2026-05-08 01:51 | -12.59449 | -50.82384 | 35931 ft | 471 kts | 316° |
| 2026-05-08 01:51 | -12.54482 | -50.86755 | 35933 ft | 470 kts | 316° |
| 2026-05-08 01:52 | -12.49527 | -50.91113 | 35933 ft | 469 kts | 316° |
| 2026-05-08 01:52 | -12.44566 | -50.95474 | 35934 ft | 469 kts | 316° |
| 2026-05-08 01:53 | -12.39613 | -50.99825 | 35935 ft | 469 kts | 316° |
| 2026-05-08 01:53 | -12.34658 | -51.04177 | 35934 ft | 470 kts | 316° |
| 2026-05-08 01:54 | -12.29811 | -51.08431 | 35936 ft | 470 kts | 316° |
| 2026-05-08 01:54 | -12.24848 | -51.12785 | 35935 ft | 470 kts | 316° |
| 2026-05-08 01:55 | -12.19876 | -51.17145 | 35938 ft | 471 kts | 316° |
| 2026-05-08 01:55 | -12.14902 | -51.21504 | 35937 ft | 471 kts | 316° |
| 2026-05-08 01:56 | -12.09926 | -51.25865 | 35936 ft | 471 kts | 316° |
| 2026-05-08 01:56 | -12.05787 | -51.29490 | 35938 ft | 471 kts | 316° |
| 2026-05-08 01:57 | -12.00805 | -51.33854 | 35933 ft | 472 kts | 316° |
| 2026-05-08 01:57 | -11.95826 | -51.38212 | 35942 ft | 472 kts | 316° |
| 2026-05-08 01:58 | -11.90839 | -51.42575 | 35939 ft | 472 kts | 316° |
| 2026-05-08 01:58 | -11.85856 | -51.46932 | 35940 ft | 472 kts | 316° |
| 2026-05-08 01:59 | -11.80896 | -51.51267 | 35937 ft | 472 kts | 316° |
| 2026-05-08 01:59 | -11.75900 | -51.55632 | 35939 ft | 472 kts | 316° |
| 2026-05-08 02:00 | -11.70907 | -51.59992 | 35940 ft | 472 kts | 316° |
| 2026-05-08 02:00 | -11.65917 | -51.64346 | 35941 ft | 472 kts | 316° |
| 2026-05-08 02:01 | -11.60929 | -51.68697 | 35943 ft | 472 kts | 316° |
| 2026-05-08 02:01 | -11.55935 | -51.73051 | 35942 ft | 472 kts | 316° |
| 2026-05-08 02:02 | -11.50944 | -51.77402 | 35938 ft | 472 kts | 316° |
| 2026-05-08 02:02 | -11.45947 | -51.81754 | 35943 ft | 472 kts | 316° |
| 2026-05-08 02:03 | -11.40957 | -51.86099 | 35943 ft | 472 kts | 316° |
| 2026-05-08 02:03 | -11.35993 | -51.90419 | 35938 ft | 472 kts | 316° |
| 2026-05-08 02:04 | -11.31097 | -51.94679 | 35939 ft | 472 kts | 316° |
| 2026-05-08 02:04 | -11.26091 | -51.99016 | 35943 ft | 472 kts | 317° |
| 2026-05-08 02:05 | -11.21047 | -52.03293 | 35940 ft | 472 kts | 317° |
| 2026-05-08 02:05 | -11.15989 | -52.07562 | 35945 ft | 472 kts | 317° |
| 2026-05-08 02:06 | -11.10937 | -52.11835 | 35944 ft | 472 kts | 317° |
| 2026-05-08 02:06 | -11.05883 | -52.16116 | 35945 ft | 472 kts | 317° |
| 2026-05-08 02:07 | -11.00839 | -52.20388 | 35942 ft | 472 kts | 317° |
| 2026-05-08 02:07 | -10.95793 | -52.24660 | 35947 ft | 472 kts | 317° |
| 2026-05-08 02:08 | -10.90742 | -52.28934 | 35948 ft | 472 kts | 317° |
| 2026-05-08 02:08 | -10.85724 | -52.33178 | 35948 ft | 472 kts | 317° |
| 2026-05-08 02:09 | -10.80673 | -52.37448 | 35949 ft | 472 kts | 317° |
| 2026-05-08 02:09 | -10.75647 | -52.41695 | 35950 ft | 472 kts | 317° |
| 2026-05-08 02:10 | -10.70596 | -52.45961 | 35948 ft | 472 kts | 317° |
| 2026-05-08 02:10 | -10.65998 | -52.49843 | 35946 ft | 472 kts | 317° |
| 2026-05-08 02:11 | -10.60942 | -52.54109 | 35953 ft | 472 kts | 317° |
| 2026-05-08 02:11 | -10.55888 | -52.58373 | 35947 ft | 472 kts | 317° |
| 2026-05-08 02:12 | -10.52544 | -52.61192 | 35946 ft | 472 kts | 317° |
| 2026-05-08 02:12 | -10.47465 | -52.65473 | 35951 ft | 472 kts | 317° |
| 2026-05-08 02:13 | -10.42410 | -52.69732 | 35950 ft | 472 kts | 317° |
| 2026-05-08 02:13 | -10.37361 | -52.73985 | 35948 ft | 472 kts | 317° |
| 2026-05-08 02:14 | -10.32337 | -52.78214 | 35946 ft | 472 kts | 317° |
| 2026-05-08 02:14 | -10.27283 | -52.82466 | 35949 ft | 472 kts | 317° |
| 2026-05-08 02:15 | -10.22230 | -52.86716 | 35946 ft | 472 kts | 317° |
| 2026-05-08 02:15 | -10.17169 | -52.90971 | 35942 ft | 472 kts | 317° |
| 2026-05-08 02:16 | -10.12113 | -52.95220 | 35946 ft | 472 kts | 317° |
| 2026-05-08 02:16 | -10.07062 | -52.99463 | 35947 ft | 472 kts | 317° |
| 2026-05-08 02:17 | -10.02004 | -53.03711 | 35946 ft | 471 kts | 317° |
| 2026-05-08 02:17 | -9.96947 | -53.07956 | 35944 ft | 471 kts | 317° |
| 2026-05-08 02:18 | -9.91923 | -53.12172 | 35943 ft | 471 kts | 317° |
| 2026-05-08 02:18 | -9.86979 | -53.16536 | 35941 ft | 470 kts | 314° |
| 2026-05-08 02:19 | -9.82195 | -53.21060 | 35948 ft | 470 kts | 314° |
| 2026-05-08 02:19 | -9.77403 | -53.25583 | 35939 ft | 470 kts | 314° |
| 2026-05-08 02:20 | -9.72590 | -53.30079 | 35941 ft | 470 kts | 315° |
| 2026-05-08 02:20 | -9.67766 | -53.34568 | 35941 ft | 470 kts | 315° |
| 2026-05-08 02:21 | -9.62945 | -53.39054 | 35943 ft | 470 kts | 315° |
| 2026-05-08 02:21 | -9.58157 | -53.43510 | 35942 ft | 470 kts | 315° |
| 2026-05-08 02:22 | -9.53338 | -53.47992 | 35940 ft | 470 kts | 315° |
| 2026-05-08 02:22 | -9.48511 | -53.52467 | 35946 ft | 470 kts | 315° |
| 2026-05-08 02:23 | -9.43687 | -53.56934 | 35939 ft | 470 kts | 315° |
| 2026-05-08 02:23 | -9.38856 | -53.61408 | 35940 ft | 470 kts | 315° |
| 2026-05-08 02:24 | -9.34030 | -53.65877 | 35940 ft | 470 kts | 315° |
| 2026-05-08 02:24 | -9.29200 | -53.70350 | 35940 ft | 470 kts | 315° |
| 2026-05-08 02:25 | -9.24366 | -53.74823 | 35937 ft | 470 kts | 315° |
| 2026-05-08 02:25 | -9.19534 | -53.79293 | 35940 ft | 470 kts | 315° |
| 2026-05-08 02:26 | -9.14707 | -53.83757 | 35941 ft | 470 kts | 315° |
| 2026-05-08 02:26 | -9.09872 | -53.88226 | 35938 ft | 470 kts | 315° |
| 2026-05-08 02:27 | -9.05070 | -53.92663 | 35939 ft | 471 kts | 315° |
| 2026-05-08 02:27 | -9.00234 | -53.97131 | 35941 ft | 471 kts | 315° |
| 2026-05-08 02:28 | -8.95399 | -54.01595 | 35941 ft | 471 kts | 315° |
| 2026-05-08 02:28 | -8.90555 | -54.06066 | 35942 ft | 471 kts | 315° |
| 2026-05-08 02:29 | -8.85710 | -54.10536 | 35940 ft | 471 kts | 315° |
| 2026-05-08 02:29 | -8.80896 | -54.14976 | 35944 ft | 471 kts | 315° |
| 2026-05-08 02:30 | -8.76049 | -54.19444 | 35943 ft | 471 kts | 315° |
| 2026-05-08 02:30 | -8.71202 | -54.23912 | 35942 ft | 471 kts | 315° |
| 2026-05-08 02:31 | -8.66351 | -54.28381 | 35941 ft | 471 kts | 315° |
| 2026-05-08 02:31 | -8.61504 | -54.32845 | 35942 ft | 471 kts | 315° |
| 2026-05-08 02:32 | -8.56678 | -54.37288 | 35937 ft | 472 kts | 315° |
| 2026-05-08 02:32 | -8.51825 | -54.41754 | 35941 ft | 472 kts | 315° |
| 2026-05-08 02:33 | -8.46975 | -54.46216 | 35941 ft | 472 kts | 316° |
| 2026-05-08 02:33 | -8.42117 | -54.50683 | 35939 ft | 472 kts | 316° |
| 2026-05-08 02:34 | -8.37266 | -54.55143 | 35940 ft | 472 kts | 316° |
| 2026-05-08 02:34 | -8.32436 | -54.59581 | 35937 ft | 472 kts | 316° |
| 2026-05-08 02:35 | -8.27582 | -54.64041 | 35935 ft | 472 kts | 316° |
| 2026-05-08 02:35 | -8.22718 | -54.68507 | 35937 ft | 472 kts | 316° |
| 2026-05-08 02:36 | -8.17856 | -54.72971 | 35935 ft | 472 kts | 316° |
| 2026-05-08 02:36 | -8.12996 | -54.77431 | 35938 ft | 472 kts | 316° |
| 2026-05-08 02:37 | -8.08131 | -54.81894 | 35936 ft | 472 kts | 316° |
| 2026-05-08 02:37 | -8.03265 | -54.86357 | 35935 ft | 472 kts | 316° |
| 2026-05-08 02:38 | -7.98393 | -54.90823 | 35939 ft | 472 kts | 316° |
| 2026-05-08 02:38 | -7.93526 | -54.95283 | 35935 ft | 473 kts | 316° |
| 2026-05-08 02:39 | -7.88690 | -54.99714 | 35939 ft | 473 kts | 316° |
| 2026-05-08 02:39 | -7.83822 | -55.04172 | 35937 ft | 473 kts | 316° |
| 2026-05-08 02:40 | -7.78951 | -55.08631 | 35934 ft | 473 kts | 316° |
| 2026-05-08 02:40 | -7.74080 | -55.13090 | 35933 ft | 473 kts | 316° |
| 2026-05-08 02:41 | -7.69208 | -55.17548 | 35937 ft | 473 kts | 316° |
| 2026-05-08 02:41 | -7.64340 | -55.22001 | 35935 ft | 473 kts | 316° |
| 2026-05-08 02:42 | -7.60292 | -55.25702 | 35937 ft | 473 kts | 316° |
| 2026-05-08 02:42 | -7.55420 | -55.30157 | 35936 ft | 473 kts | 316° |
| 2026-05-08 02:43 | -7.50542 | -55.34615 | 35941 ft | 473 kts | 316° |
| 2026-05-08 02:43 | -7.45667 | -55.39070 | 35942 ft | 473 kts | 316° |
| 2026-05-08 02:44 | -7.40846 | -55.43524 | 35934 ft | 472 kts | 313° |
| 2026-05-08 02:44 | -7.36832 | -55.48721 | 35944 ft | 470 kts | 304° |
| 2026-05-08 02:45 | -7.33036 | -55.54086 | 35945 ft | 470 kts | 304° |
| 2026-05-08 02:45 | -7.29211 | -55.59435 | 35943 ft | 470 kts | 304° |
| 2026-05-08 02:46 | -7.25364 | -55.64768 | 35944 ft | 471 kts | 304° |
| 2026-05-08 02:46 | -7.21506 | -55.70096 | 35948 ft | 471 kts | 304° |
| 2026-05-08 02:47 | -7.17646 | -55.75426 | 35942 ft | 471 kts | 304° |
| 2026-05-08 02:47 | -7.13780 | -55.80763 | 35944 ft | 471 kts | 304° |
| 2026-05-08 02:48 | -7.09933 | -55.86074 | 35944 ft | 472 kts | 304° |
| 2026-05-08 02:48 | -7.06067 | -55.91409 | 35945 ft | 472 kts | 304° |
| 2026-05-08 02:49 | -7.02196 | -55.96750 | 35947 ft | 472 kts | 304° |
| 2026-05-08 02:49 | -6.98323 | -56.02091 | 35945 ft | 472 kts | 304° |
| 2026-05-08 02:50 | -6.94449 | -56.07433 | 35947 ft | 472 kts | 305° |
| 2026-05-08 02:50 | -6.90574 | -56.12773 | 35944 ft | 473 kts | 305° |
| 2026-05-08 02:51 | -6.86691 | -56.18123 | 35950 ft | 472 kts | 305° |
| 2026-05-08 02:51 | -6.82838 | -56.23430 | 35953 ft | 472 kts | 305° |
| 2026-05-08 02:52 | -6.78963 | -56.28766 | 35954 ft | 472 kts | 305° |
| 2026-05-08 02:52 | -6.75084 | -56.34106 | 35954 ft | 472 kts | 305° |
| 2026-05-08 02:53 | -6.71208 | -56.39440 | 35951 ft | 473 kts | 305° |
| 2026-05-08 02:53 | -6.67327 | -56.44779 | 35955 ft | 472 kts | 305° |
| 2026-05-08 02:54 | -6.63449 | -56.50112 | 35955 ft | 472 kts | 305° |
| 2026-05-08 02:54 | -6.59569 | -56.55446 | 35960 ft | 472 kts | 305° |
| 2026-05-08 02:55 | -6.53749 | -56.63445 | 35958 ft | 472 kts | 305° |
| 2026-05-08 02:56 | -6.49869 | -56.68775 | 35957 ft | 472 kts | 305° |
| 2026-05-08 02:56 | -6.46015 | -56.74068 | 35966 ft | 472 kts | 305° |
| 2026-05-08 02:57 | -6.42139 | -56.79390 | 35961 ft | 472 kts | 305° |
| 2026-05-08 02:57 | -6.38262 | -56.84711 | 35961 ft | 472 kts | 305° |
| 2026-05-08 02:58 | -6.34380 | -56.90038 | 35959 ft | 471 kts | 305° |
| 2026-05-08 02:58 | -6.30503 | -56.95357 | 35962 ft | 471 kts | 305° |
| 2026-05-08 02:59 | -6.26631 | -57.00666 | 35961 ft | 471 kts | 305° |
| 2026-05-08 02:59 | -6.22758 | -57.05976 | 35963 ft | 471 kts | 305° |
| 2026-05-08 03:00 | -6.18880 | -57.11292 | 35965 ft | 471 kts | 305° |
| 2026-05-08 03:00 | -6.15661 | -57.15702 | 35953 ft | 471 kts | 305° |
| 2026-05-08 03:01 | -6.14009 | -57.17966 | 35961 ft | 471 kts | 305° |
| 2026-05-08 03:02 | -6.10346 | -57.22983 | 35958 ft | 470 kts | 305° |
| 2026-05-08 03:02 | -6.06475 | -57.28284 | 35959 ft | 470 kts | 305° |
| 2026-05-08 03:03 | -6.02601 | -57.33588 | 35958 ft | 470 kts | 305° |
| 2026-05-08 03:03 | -5.98755 | -57.38852 | 35957 ft | 470 kts | 305° |
| 2026-05-08 03:04 | -5.94880 | -57.44153 | 35959 ft | 470 kts | 305° |
| 2026-05-08 03:04 | -5.91010 | -57.49448 | 35958 ft | 470 kts | 305° |
| 2026-05-08 03:05 | -5.87138 | -57.54743 | 35957 ft | 470 kts | 305° |
| 2026-05-08 03:05 | -5.83266 | -57.60037 | 35958 ft | 470 kts | 305° |
| 2026-05-08 03:06 | -5.79390 | -57.65335 | 35961 ft | 471 kts | 305° |
| 2026-05-08 03:06 | -5.75839 | -57.70187 | 35960 ft | 471 kts | 305° |
| 2026-05-08 03:07 | -5.71957 | -57.75489 | 35961 ft | 471 kts | 305° |
| 2026-05-08 03:07 | -5.68094 | -57.80765 | 35964 ft | 471 kts | 305° |
| 2026-05-08 03:08 | -5.64223 | -57.86051 | 35952 ft | 467 kts | 306° |
| 2026-05-08 03:08 | -5.60397 | -57.91273 | 35961 ft | 463 kts | 306° |
| 2026-05-08 03:09 | -5.56586 | -57.96474 | 35960 ft | 462 kts | 306° |
| 2026-05-08 03:09 | -5.52780 | -58.01668 | 35963 ft | 461 kts | 306° |
| 2026-05-08 03:10 | -5.48976 | -58.06855 | 35964 ft | 461 kts | 306° |
| 2026-05-08 03:10 | -5.45168 | -58.12048 | 35960 ft | 462 kts | 305° |
| 2026-05-08 03:11 | -5.41349 | -58.17256 | 35958 ft | 463 kts | 306° |
| 2026-05-08 03:11 | -5.37523 | -58.22471 | 35962 ft | 465 kts | 306° |
| 2026-05-08 03:12 | -5.33684 | -58.27703 | 35958 ft | 466 kts | 306° |
| 2026-05-08 03:12 | -5.29837 | -58.32944 | 35961 ft | 467 kts | 306° |
| 2026-05-08 03:13 | -5.26009 | -58.38158 | 35960 ft | 467 kts | 306° |
| 2026-05-08 03:13 | -5.22153 | -58.43407 | 35958 ft | 468 kts | 306° |
| 2026-05-08 03:14 | -5.18291 | -58.48665 | 35954 ft | 468 kts | 306° |
| 2026-05-08 03:14 | -5.14429 | -58.53922 | 35954 ft | 468 kts | 306° |
| 2026-05-08 03:15 | -5.10566 | -58.59179 | 35956 ft | 468 kts | 306° |
| 2026-05-08 03:15 | -5.06707 | -58.64429 | 35953 ft | 467 kts | 306° |
| 2026-05-08 03:16 | -5.02847 | -58.69679 | 35954 ft | 467 kts | 306° |
| 2026-05-08 03:16 | -4.98990 | -58.74924 | 35954 ft | 467 kts | 306° |
| 2026-05-08 03:17 | -4.95154 | -58.80140 | 35952 ft | 467 kts | 306° |
| 2026-05-08 03:17 | -4.91296 | -58.85383 | 35954 ft | 467 kts | 306° |
| 2026-05-08 03:18 | -4.87438 | -58.90625 | 35950 ft | 467 kts | 305° |
| 2026-05-08 03:18 | -4.83576 | -58.95873 | 35953 ft | 467 kts | 305° |
| 2026-05-08 03:19 | -4.79712 | -59.01122 | 35952 ft | 467 kts | 305° |
| 2026-05-08 03:19 | -4.75833 | -59.06390 | 35557 ft | 474 kts | 305° |
| 2026-05-08 03:19 | -4.73874 | -59.09050 | 35184 ft | 474 kts | 305° |
| 2026-05-08 03:20 | -4.71920 | -59.11704 | 34672 ft | 472 kts | 306° |
| 2026-05-08 03:20 | -4.69969 | -59.14351 | 34228 ft | 472 kts | 306° |
| 2026-05-08 03:20 | -4.68017 | -59.17001 | 33718 ft | 474 kts | 306° |
| 2026-05-08 03:20 | -4.66055 | -59.19664 | 33222 ft | 474 kts | 306° |
| 2026-05-08 03:21 | -4.64095 | -59.22324 | 32740 ft | 474 kts | 306° |
| 2026-05-08 03:21 | -4.62161 | -59.24948 | 32277 ft | 475 kts | 306° |
| 2026-05-08 03:21 | -4.60193 | -59.27618 | 31810 ft | 479 kts | 306° |
| 2026-05-08 03:21 | -4.58198 | -59.30325 | 31347 ft | 486 kts | 306° |
| 2026-05-08 03:22 | -4.56184 | -59.33057 | 30839 ft | 489 kts | 306° |
| 2026-05-08 03:22 | -4.54157 | -59.35807 | 30356 ft | 490 kts | 306° |
| 2026-05-08 03:22 | -4.52126 | -59.38561 | 29853 ft | 492 kts | 307° |
| 2026-05-08 03:22 | -4.50092 | -59.41320 | 29311 ft | 492 kts | 307° |
| 2026-05-08 03:23 | -4.48058 | -59.44078 | 28794 ft | 493 kts | 307° |
| 2026-05-08 03:23 | -4.46009 | -59.46855 | 28277 ft | 498 kts | 307° |
| 2026-05-08 03:23 | -4.43943 | -59.49655 | 27759 ft | 499 kts | 307° |
| 2026-05-08 03:23 | -4.41883 | -59.52448 | 27251 ft | 500 kts | 307° |
| 2026-05-08 03:24 | -4.39817 | -59.55249 | 26745 ft | 500 kts | 307° |
| 2026-05-08 03:24 | -4.37743 | -59.58059 | 26239 ft | 501 kts | 307° |
| 2026-05-08 03:24 | -4.35670 | -59.60869 | 25708 ft | 502 kts | 307° |
| 2026-05-08 03:24 | -4.33592 | -59.63685 | 25187 ft | 503 kts | 307° |
| 2026-05-08 03:25 | -4.31514 | -59.66500 | 24665 ft | 503 kts | 307° |
| 2026-05-08 03:25 | -4.29438 | -59.69313 | 24136 ft | 500 kts | 307° |
| 2026-05-08 03:25 | -4.27382 | -59.72098 | 23622 ft | 492 kts | 308° |
| 2026-05-08 03:25 | -4.25358 | -59.74841 | 23037 ft | 487 kts | 308° |
| 2026-05-08 03:26 | -4.23378 | -59.77522 | 22519 ft | 483 kts | 308° |
| 2026-05-08 03:26 | -4.21385 | -59.80220 | 22006 ft | 479 kts | 308° |
| 2026-05-08 03:26 | -4.19416 | -59.82887 | 21500 ft | 475 kts | 308° |
| 2026-05-08 03:26 | -4.17459 | -59.85537 | 21006 ft | 472 kts | 307° |
| 2026-05-08 03:27 | -4.15512 | -59.88173 | 20513 ft | 469 kts | 307° |
| 2026-05-08 03:27 | -4.13581 | -59.90787 | 20025 ft | 466 kts | 307° |
| 2026-05-08 03:27 | -4.11637 | -59.93374 | 19532 ft | 462 kts | 311° |
| 2026-05-08 03:27 | -4.09246 | -59.95491 | 19040 ft | 456 kts | 330° |
| 2026-05-08 03:28 | -4.06381 | -59.96771 | 18574 ft | 449 kts | 345° |
| 2026-05-08 03:28 | -4.03374 | -59.97596 | 18061 ft | 445 kts | 346° |
| 2026-05-08 03:28 | -4.00427 | -59.98429 | 17536 ft | 435 kts | 345° |
| 2026-05-08 03:28 | -3.97556 | -59.99264 | 17051 ft | 425 kts | 345° |
| 2026-05-08 03:29 | -3.95487 | -59.99874 | 16715 ft | 418 kts | 345° |
| 2026-05-08 03:29 | -3.92768 | -60.00684 | 16270 ft | 409 kts | 345° |
| 2026-05-08 03:29 | -3.90051 | -60.01496 | 15827 ft | 400 kts | 345° |
| 2026-05-08 03:29 | -3.87406 | -60.02288 | 15398 ft | 393 kts | 345° |
| 2026-05-08 03:30 | -3.82276 | -60.03824 | 14548 ft | 381 kts | 345° |
| 2026-05-08 03:30 | -3.77257 | -60.05325 | 13710 ft | 372 kts | 344° |
| 2026-05-08 03:31 | -3.72368 | -60.06787 | 12850 ft | 362 kts | 344° |
| 2026-05-08 03:31 | -3.67612 | -60.08210 | 12049 ft | 352 kts | 345° |
| 2026-05-08 03:32 | -3.65348 | -60.08887 | 11678 ft | 347 kts | 345° |
| 2026-05-08 03:32 | -3.63043 | -60.09576 | 11290 ft | 343 kts | 345° |
| 2026-05-08 03:32 | -3.60767 | -60.10257 | 10919 ft | 339 kts | 345° |
| 2026-05-08 03:32 | -3.58513 | -60.10930 | 10545 ft | 336 kts | 345° |
| 2026-05-08 03:33 | -3.56356 | -60.11575 | 10261 ft | 330 kts | 345° |
| 2026-05-08 03:33 | -3.54189 | -60.12223 | 10116 ft | 320 kts | 345° |
| 2026-05-08 03:33 | -3.52111 | -60.12845 | 9961 ft | 311 kts | 345° |
| 2026-05-08 03:33 | -3.50073 | -60.13455 | 9911 ft | 299 kts | 345° |
| 2026-05-08 03:34 | -3.48123 | -60.14039 | 9855 ft | 287 kts | 345° |
| 2026-05-08 03:34 | -3.46209 | -60.14611 | 9589 ft | 284 kts | 345° |
| 2026-05-08 03:34 | -3.44325 | -60.15174 | 9355 ft | 280 kts | 345° |
| 2026-05-08 03:34 | -3.42464 | -60.15730 | 9069 ft | 279 kts | 345° |
| 2026-05-08 03:35 | -3.40607 | -60.16285 | 8757 ft | 278 kts | 345° |
| 2026-05-08 03:35 | -3.38757 | -60.16838 | 8484 ft | 276 kts | 345° |
| 2026-05-08 03:35 | -3.35460 | -60.17823 | 7982 ft | 274 kts | 345° |
| 2026-05-08 03:36 | -3.33640 | -60.18368 | 7700 ft | 272 kts | 345° |
| 2026-05-08 03:36 | -3.31825 | -60.18910 | 7451 ft | 271 kts | 345° |
| 2026-05-08 03:36 | -3.30027 | -60.19448 | 7172 ft | 269 kts | 345° |
| 2026-05-08 03:36 | -3.28250 | -60.19980 | 6843 ft | 265 kts | 345° |
| 2026-05-08 03:37 | -3.26485 | -60.20507 | 6388 ft | 265 kts | 345° |
| 2026-05-08 03:37 | -3.24723 | -60.21033 | 5947 ft | 265 kts | 345° |
| 2026-05-08 03:37 | -3.22930 | -60.21434 | 5693 ft | 262 kts | 352° |
| 2026-05-08 03:37 | -3.21148 | -60.21706 | 5392 ft | 256 kts | 353° |
| 2026-05-08 03:38 | -3.19390 | -60.21972 | 4929 ft | 256 kts | 352° |
| 2026-05-08 03:38 | -3.17644 | -60.22250 | 4634 ft | 252 kts | 352° |
| 2026-05-08 03:38 | -3.15932 | -60.22529 | 4342 ft | 252 kts | 352° |
| 2026-05-08 03:38 | -3.14198 | -60.22815 | 4058 ft | 252 kts | 352° |
| 2026-05-08 03:39 | -3.12467 | -60.22951 | 3873 ft | 246 kts | 1° |
| 2026-05-08 03:39 | -3.10775 | -60.22924 | 3744 ft | 239 kts | 2° |
| 2026-05-08 03:39 | -3.09134 | -60.22894 | 3640 ft | 233 kts | 1° |
| 2026-05-08 03:39 | -3.07691 | -60.22877 | 3540 ft | 227 kts | 1° |
| 2026-05-08 03:40 | -3.06332 | -60.22866 | 3455 ft | 220 kts | 2° |
| 2026-05-08 03:40 | -3.04877 | -60.22518 | 3232 ft | 217 kts | 35° |
| 2026-05-08 03:40 | -3.04030 | -60.21337 | 3100 ft | 213 kts | 75° |
| 2026-05-08 03:40 | -3.03907 | -60.19856 | 2866 ft | 216 kts | 84° |
| 2026-05-08 03:41 | -3.03838 | -60.18345 | 2591 ft | 218 kts | 86° |
| 2026-05-08 03:41 | -3.03830 | -60.16828 | 2315 ft | 216 kts | 88° |
| 2026-05-08 03:41 | -3.03836 | -60.15362 | 2034 ft | 209 kts | 88° |
| 2026-05-08 03:41 | -3.03841 | -60.13934 | 1768 ft | 196 kts | 88° |
| 2026-05-08 03:42 | -3.03843 | -60.12618 | 1528 ft | 181 kts | 88° |
| 2026-05-08 03:42 | -3.03846 | -60.11430 | 1302 ft | 161 kts | 88° |
| 2026-05-08 03:42 | -3.03848 | -60.10398 | 1110 ft | 141 kts | 88° |
| 2026-05-08 03:42 | -3.03850 | -60.09446 | 942 ft | 135 kts | 88° |
| 2026-05-08 03:43 | -3.03851 | -60.08493 | 765 ft | 138 kts | 89° |
| 2026-05-08 03:43 | -3.03854 | -60.07529 | 574 ft | 138 kts | 89° |
| 2026-05-08 03:43 | -3.03859 | -60.06571 | 398 ft | 137 kts | 88° |
| 2026-05-08 03:43 | -3.03856 | -60.05620 | 268 ft | 130 kts | 89° |
| 2026-05-08 03:44 | -3.03857 | -60.04809 | 267 ft | 100 kts | 90° |
| 2026-05-08 03:44 | -3.03860 | -60.04199 | 270 ft | 75 kts | 90° |
| 2026-05-08 03:44 | -3.03860 | -60.03861 | 270 ft | 14 kts | 90° |
| 2026-05-08 03:44 | -3.03841 | -60.03792 | 271 ft | 10 kts | 50° |
| 2026-05-08 03:45 | -3.03775 | -60.03769 | 271 ft | 10 kts | 358° |
| 2026-05-08 03:45 | -3.03712 | -60.03797 | 272 ft | 10 kts | 316° |
| 2026-05-08 03:45 | -3.03682 | -60.03857 | 271 ft | 10 kts | 286° |
| 2026-05-08 03:45 | -3.03663 | -60.03920 | 273 ft | 9 kts | 286° |
| 2026-05-08 03:46 | -3.03646 | -60.03983 | 270 ft | 9 kts | 285° |
| 2026-05-08 03:46 | -3.03630 | -60.04043 | 270 ft | 9 kts | 285° |
| 2026-05-08 03:46 | -3.03614 | -60.04102 | 270 ft | 9 kts | 285° |
| 2026-05-08 03:46 | -3.03598 | -60.04160 | 269 ft | 8 kts | 285° |
| 2026-05-08 03:47 | -3.03581 | -60.04214 | 269 ft | 8 kts | 295° |
| 2026-05-08 03:47 | -3.03552 | -60.04262 | 269 ft | 8 kts | 301° |
| 2026-05-08 03:47 | -3.03521 | -60.04306 | 269 ft | 8 kts | 316° |
| 2026-05-08 03:47 | -3.03479 | -60.04338 | 269 ft | 7 kts | 326° |
| 2026-05-08 03:48 | -3.03434 | -60.04361 | 268 ft | 7 kts | 336° |
| 2026-05-08 03:48 | -3.03388 | -60.04377 | 268 ft | 7 kts | 341° |
| 2026-05-08 03:48 | -3.03341 | -60.04385 | 268 ft | 7 kts | 1° |
| 2026-05-08 03:48 | -3.03297 | -60.04370 | 268 ft | 7 kts | 11° |
| 2026-05-08 03:49 | -3.03252 | -60.04379 | 268 ft | 7 kts | 348° |
| 2026-05-08 03:49 | -3.03249 | -60.04380 | 268 ft | 0 kts | 347° |